This is the latest recevied weather packets stored in our database for station/object SV4FHR-2. If no packets are shown the sender has not sent any weather packets the latest 10 day(s).
| Time | Temp. | Humidity | Pressure | Rain* | Wind** | Luminosity | Snow |
|---|---|---|---|---|---|---|---|
| 1777928184 | 10° C | 81% | 1015.4 hPa | 0 mm | - | - | - |
| 1777927884 | 10° C | 82% | 1015.4 hPa | 0 mm | - | - | - |
| 1777927584 | 10.56° C | 81% | 1015.4 hPa | 0 mm | - | - | - |
| 1777927284 | 10° C | 83% | 1015.6 hPa | 0 mm | - | - | - |
| 1777926984 | 9.44° C | 83% | 1015.6 hPa | 0 mm | - | - | - |
| 1777926684 | 10° C | 82% | 1015.6 hPa | 0 mm | - | - | - |
| 1777926384 | 10° C | 81% | 1015.6 hPa | 0 mm | - | - | - |
| 1777926084 | 10.56° C | 80% | 1015.5 hPa | 0 mm | - | - | - |
| 1777925784 | 10.56° C | 78% | 1015.6 hPa | 0 mm | - | - | - |
| 1777925484 | 11.11° C | 77% | 1015.4 hPa | 0 mm | - | - | - |
| 1777925185 | 11.11° C | 77% | 1015.5 hPa | 0 mm | - | - | - |
| 1777924885 | 11.67° C | 78% | 1015.3 hPa | 0 mm | - | - | - |
| 1777924584 | 11.67° C | 77% | 1015.6 hPa | 0 mm | - | - | - |
| 1777924284 | 11.67° C | 77% | 1015.6 hPa | 0 mm | - | - | - |
| 1777923984 | 11.11° C | 78% | 1015.5 hPa | 0 mm | - | - | - |
| 1777923684 | 11.11° C | 79% | 1015.5 hPa | 0 mm | - | - | - |
| 1777923384 | 11.67° C | 79% | 1015.5 hPa | 0 mm | - | - | - |
| 1777923083 | 11.67° C | 78% | 1015.4 hPa | 0 mm | - | - | - |
| 1777922783 | 11.67° C | 77% | 1015.6 hPa | 0 mm | - | - | - |
| 1777922483 | 11.67° C | 76% | 1015.7 hPa | 0 mm | - | - | - |
| 1777922185 | 12.78° C | 74% | 1015.6 hPa | 0 mm | - | - | - |
| 1777921885 | 13.89° C | 67% | 1015.5 hPa | 0 mm | - | - | - |
| 1777921585 | 14.44° C | 66% | 1015.3 hPa | 0 mm | - | - | - |
| 1777921285 | 13.89° C | 67% | 1015.2 hPa | 0 mm | - | - | - |
| 1777920984 | 13.89° C | 67% | 1015 hPa | 0 mm | - | - | - |
* Rain latest hour (hover to see other rain measurements)
** Current wind speed in m/s (hover to see current wind gust speed)